FW1419 Weather Reports


Display with metric or nautical units.
time (UTC)temp
F
wind
direction
speed
MPH
gust
MPH
rain 1hr
in
rain 24hr
in
rain mn
in
humidity
%
barometer
mb
20190323164335 54 255 2.0 4.0 0.00 0.00 0.00 84 1021.2
20190323163836 54 281 0.0 3.0 0.00 0.00 0.00 85 1021.2
20190323163338 53 217 0.0 6.0 0.00 0.00 0.00 86 1020.3
20190323162820 53 230 2.0 6.0 0.00 0.00 0.00 86 1020.3
20190323162326 52 225 1.0 5.0 0.00 0.00 0.00 86 1020.2
20190323161828 52 240 0.0 5.0 0.00 0.00 0.00 87 1020.2
20190323161333 52 204 2.0 5.0 0.00 0.00 0.00 87 1020.2
20190323160835 52 219 2.0 4.0 0.00 0.00 0.00 88 1020.2
20190323160338 52 214 0.0 2.0 0.00 0.00 0.00 87 1020.2
20190323155820 51 254 1.0 2.0 0.00 0.00 0.00 87 1020.2
20190323155321 51 199 1.0 3.0 0.00 0.00 0.00 87 1020.3
20190323154822 51 213 2.0 3.0 0.00 0.00 0.00 85 1020.3
20190323154322 51 219 3.0 3.0 0.00 0.00 0.00 83 1020.3
20190323153827 51 252 0.0 0.0 0.00 0.00 0.00 81 1020.3
20190323153331 52 263 0.0 0.0 0.00 0.00 0.00 78 1020.3
20190323152833 51 140 0.0 0.0 0.00 0.00 0.00 83 1020.3
20190323152337 50 140 0.0 0.0 0.00 0.00 0.00 84 1020.3
20190323151837 50 140 0.0 0.0 0.00 0.00 0.00 86 1020.4
20190323151319 49 140 0.0 0.0 0.00 0.00 0.00 85 1020.4
20190323150820 48 124 0.0 0.0 0.00 0.00 0.00 87 1020.6
20190323150321 48 109 0.0 0.0 0.00 0.00 0.00 90 1020.6
20190323145823 46 110 0.0 0.0 0.00 0.00 0.00 93 1020.6
20190323145325 45 110 0.0 0.0 0.00 0.00 0.00 93 1020.5
20190323144827 44 110 0.0 0.0 0.00 0.00 0.00 93 1020.5
20190323144332 44 109 0.0 0.0 0.00 0.00 0.00 93 1020.5
20190323143837 44 109 0.0 0.0 0.00 0.00 0.00 92 1020.5
20190323143338 44 109 0.0 0.0 0.00 0.00 0.00 92 1020.2
20190323142824 44 109 0.0 0.0 0.00 0.00 0.00 93 1020.2
20190323142327 44 109 0.0 0.0 0.00 0.00 0.00 93 1020.3
20190323141831 43 109 0.0 0.0 0.00 0.00 0.00 94 1020.3
20190323141333 43 109 0.0 0.0 0.00 0.00 0.00 94 1020.3
20190323140834 43 109 0.0 0.0 0.00 0.00 0.00 94 1020.3
20190323140335 43 109 0.0 0.0 0.00 0.00 0.00 94 1020.2
20190323135837 43 109 0.0 0.0 0.00 0.00 0.00 94 1020.2
20190323135339 43 109 0.0 0.0 0.00 0.00 0.00 93 1020.2
20190323134822 43 109 0.0 0.0 0.00 0.00 0.00 93 1019.9
20190323134325 43 109 0.0 0.0 0.00 0.00 0.00 93 1019.9
20190323133826 43 109 0.0 0.0 0.00 0.00 0.00 93 1019.8
20190323133332 43 109 0.0 0.0 0.00 0.00 0.00 93 1019.8
20190323132820 43 110 0.0 0.0 0.00 0.00 0.00 93 1019.8
20190323132322 43 109 0.0 0.0 0.00 0.00 0.00 93 1019.8
20190323131824 43 109 0.0 0.0 0.00 0.00 0.00 93 1019.8
20190323131327 43 109 0.0 0.0 0.00 0.00 0.00 92 1019.8
20190323130829 43 109 0.0 0.0 0.00 0.00 0.00 92 1019.4
20190323130334 43 109 0.0 0.0 0.00 0.00 0.00 92 1019.4
20190323125836 44 109 0.0 0.0 0.00 0.00 0.00 92 1019.4
20190323125337 44 109 0.0 0.0 0.00 0.00 0.00 92 1019.4
20190323124838 44 109 0.0 0.0 0.00 0.00 0.00 92 1019.2
20190323124320 44 109 0.0 0.0 0.00 0.00 0.00 92 1019.2
20190323123821 44 109 0.0 0.0 0.00 0.00 0.00 92 1019.3
20190323123328 44 110 0.0 0.0 0.00 0.00 0.00 92 1019.3
20190323122829 44 110 0.0 0.0 0.00 0.00 0.00 91 1019.3
20190323122328 44 109 0.0 0.0 0.00 0.00 0.00 90 1019.3
20190323121834 44 109 0.0 0.0 0.00 0.00 0.00 90 1019.3
20190323121334 45 109 0.0 0.0 0.00 0.00 0.00 90 1019.3
20190323120820 45 109 0.0 0.0 0.00 0.00 0.00 90 1019.6
20190323120321 45 109 0.0 0.0 0.00 0.00 0.00 90 1019.6
20190323115823 45 109 0.0 0.0 0.00 0.00 0.00 89 1019.6
20190323115325 45 109 0.0 0.0 0.00 0.00 0.00 90 1019.2
20190323114830 45 109 0.0 0.0 0.00 0.00 0.00 90 1020.2
20190323114333 46 109 0.0 0.0 0.00 0.00 0.00 89 1020.2
20190323113822 46 109 0.0 0.0 0.00 0.00 0.00 90 1020.2
20190323113325 46 109 0.0 0.0 0.00 0.00 0.00 90 1020.2
20190323112826 46 109 0.0 0.0 0.00 0.00 0.00 90 1020.2
20190323112328 46 99 0.0 0.0 0.00 0.00 0.00 90 1020.3
20190323111831 47 98 0.0 0.0 0.00 0.00 0.00 91 1020.3
20190323111334 47 98 0.0 0.0 0.00 0.00 0.00 92 1020.3
20190323110836 47 98 0.0 0.0 0.00 0.00 0.00 92 1020.3
20190323110338 47 144 0.0 0.0 0.00 0.00 0.00 92 1020.5
20190323105819 47 144 0.0 0.0 0.00 0.00 0.00 91 1020.5
20190323105322 47 144 0.0 0.0 0.00 0.00 0.00 91 1020.4
20190323104827 47 144 0.0 0.0 0.00 0.00 0.00 91 1020.4
20190323104329 47 144 0.0 0.0 0.00 0.00 0.00 90 1020.4
20190323103837 48 144 0.0 0.0 0.00 0.00 0.00 90 1020.4
20190323103338 48 144 0.0 0.0 0.00 0.00 0.00 89 1020.4
20190323102821 48 144 0.0 0.0 0.00 0.00 0.00 89 1020.4
20190323102323 48 144 0.0 0.0 0.00 0.00 0.00 89 1020.7
20190323101826 48 144 0.0 0.0 0.00 0.00 0.00 89 1020.7
20190323101331 48 144 0.0 0.0 0.00 0.00 0.00 89 1020.7
20190323100833 48 107 0.0 0.0 0.00 0.00 0.00 90 1020.7
20190323100338 48 111 0.0 0.0 0.00 0.00 0.00 90 1021.1
20190323095820 48 126 0.0 0.0 0.00 0.00 0.00 91 1021.1
20190323095322 48 140 0.0 0.0 0.00 0.00 0.00 92 1021.3
20190323094828 48 144 0.0 0.0 0.00 0.00 0.00 92 1021.3
20190323094337 48 149 0.0 0.0 0.00 0.00 0.00 92 1021.3
20190323093839 48 149 0.0 0.0 0.00 0.00 0.00 92 1021.3
20190323093321 48 148 0.0 0.0 0.00 0.00 0.00 92 1021.4
20190323092826 48 149 0.0 0.0 0.00 0.00 0.00 92 1021.4
20190323092328 48 148 0.0 0.0 0.00 0.00 0.00 92 1021.4
20190323091830 48 149 0.0 0.0 0.00 0.00 0.00 92 1021.4
20190323091334 48 149 0.0 0.0 0.00 0.00 0.00 92 1021.4
20190323090819 48 110 0.0 0.0 0.00 0.00 0.00 92 1021.1
20190323090324 48 110 0.0 0.0 0.00 0.00 0.00 92 1021.1
20190323085830 48 110 0.0 0.0 0.00 0.00 0.00 91 1021.1
20190323085333 48 110 0.0 0.0 0.00 0.00 0.00 91 1021.1
20190323084819 48 110 0.0 0.0 0.00 0.00 0.00 91 1021.0
20190323084324 48 110 0.0 0.0 0.00 0.00 0.00 90 1021.0
20190323083827 48 110 0.0 0.0 0.00 0.00 0.00 91 1020.9
20190323083329 48 110 0.0 0.0 0.00 0.00 0.00 90 1020.9
20190323082832 48 110 0.0 0.0 0.00 0.00 0.00 90 1020.9
20190323082333 49 110 0.0 0.0 0.00 0.00 0.00 89 1020.9
20190323081836 49 110 0.0 0.0 0.00 0.00 0.00 89 1020.8
20190323081321 49 110 0.0 0.0 0.00 0.00 0.00 89 1020.8
20190323080826 49 110 0.0 0.0 0.00 0.00 0.00 88 1020.9
20190323080328 49 110 0.0 0.0 0.00 0.00 0.00 89 1020.9
20190323075832 50 110 0.0 0.0 0.00 0.00 0.00 89 1020.9
20190323075321 50 110 0.0 0.0 0.00 0.00 0.00 89 1021.0
20190323074824 50 110 0.0 0.0 0.00 0.00 0.00 89 1021.0
20190323074326 50 110 0.0 0.0 0.00 0.00 0.00 89 1021.0
20190323073829 50 110 0.0 0.0 0.00 0.00 0.00 89 1021.2
20190323073331 50 110 0.0 0.0 0.00 0.00 0.00 88 1020.2
20190323072833 49 110 0.0 0.0 0.00 0.00 0.00 88 1020.2
20190323072336 49 110 0.0 0.0 0.00 0.00 0.00 88 1020.2
20190323071820 49 101 0.0 0.0 0.00 0.00 0.00 88 1020.7
20190323071324 49 101 0.0 0.0 0.00 0.00 0.00 89 1020.7
20190323070828 49 127 0.0 0.0 0.00 0.00 0.00 89 1020.9
20190323070333 48 130 0.0 0.0 0.00 0.00 0.00 89 1020.9
20190323065839 48 125 0.0 0.0 0.00 0.00 0.00 90 1020.9
20190323065321 48 125 0.0 0.0 0.00 0.00 0.00 90 1020.8
20190323064824 48 125 0.0 0.0 0.00 0.00 0.00 90 1020.8
20190323064326 48 125 0.0 0.0 0.00 0.00 0.00 90 1020.8
20190323063829 48 125 0.0 0.0 0.00 0.00 0.00 90 1020.8
20190323063331 48 125 0.0 0.0 0.00 0.00 0.00 90 1020.8
20190323062834 48 125 0.0 0.0 0.00 0.00 0.00 89 1020.8
20190323062336 48 125 0.0 0.0 0.00 0.00 0.00 89 1020.8
20190323061839 48 125 0.0 0.0 0.00 0.00 0.00 88 1020.6
20190323061321 48 125 0.0 0.0 0.00 0.00 0.00 88 1020.6
20190323060823 49 125 0.0 0.0 0.00 0.00 0.00 87 1020.8
20190323060330 49 125 0.0 0.0 0.00 0.00 0.00 87 1020.8
20190323055833 49 125 0.0 0.0 0.00 0.00 0.00 87 1020.8
20190323055335 49 122 0.0 0.0 0.00 0.00 0.00 87 1020.8
20190323054838 49 123 0.0 0.0 0.00 0.00 0.00 87 1021.0
20190323054321 50 136 0.0 0.0 0.00 0.00 0.00 87 1021.0
20190323053825 50 136 0.0 0.0 0.00 0.00 0.00 86 1021.0
20190323053330 50 136 0.0 0.0 0.00 0.00 0.00 86 1021.0
20190323052836 50 136 0.0 0.0 0.00 0.00 0.00 86 1021.0
20190323052319 50 166 0.0 0.0 0.00 0.00 0.00 86 1020.8
20190323051826 51 166 0.0 0.0 0.00 0.00 0.00 86 1020.8
20190323051328 51 166 0.0 0.0 0.00 0.00 0.00 87 1020.8
20190323050834 51 166 0.0 0.0 0.00 0.00 0.00 87 1020.8
20190323050336 52 263 0.0 0.0 0.00 0.00 0.00 87 1020.8
20190323045838 52 263 0.0 0.0 0.00 0.00 0.00 87 1020.8
20190323045320 52 264 0.0 0.0 0.00 0.00 0.00 88 1020.4
20190323044823 52 264 0.0 0.0 0.00 0.00 0.00 88 1020.4
20190323044328 52 263 0.0 0.0 0.00 0.00 0.00 87 1020.4
20190323043834 52 263 0.0 0.0 0.00 0.00 0.00 86 1020.4
20190323043337 53 263 0.0 0.0 0.00 0.00 0.00 86 1020.3
20190323042839 53 264 0.0 0.0 0.00 0.00 0.00 86 1020.3
20190323042321 53 263 0.0 0.0 0.00 0.00 0.00 85 1020.1
20190323041824 53 263 0.0 0.0 0.00 0.00 0.00 85 1021.1
20190323041331 53 264 0.0 0.0 0.00 0.00 0.00 85 1021.1
20190323040833 54 263 0.0 0.0 0.00 0.00 0.00 84 1021.1
20190323040335 54 263 0.0 0.0 0.00 0.00 0.00 84 1020.2
20190323035838 54 264 0.0 2.0 0.00 0.00 0.00 83 1020.2
20190323035320 54 213 0.0 2.0 0.00 0.00 0.00 83 1019.8
20190323034825 54 234 0.0 0.0 0.00 0.00 0.00 83 1019.8
20190323034327 54 238 0.0 0.0 0.00 0.00 0.00 83 1019.8
20190323033828 54 238 0.0 0.0 0.00 0.00 0.00 81 1019.7
20190323033331 54 238 0.0 0.0 0.00 0.00 0.00 80 1019.7
20190323032832 54 238 0.0 0.0 0.00 0.00 0.00 80 1019.7
20190323032335 54 146 0.0 0.0 0.00 0.00 0.00 79 1019.7
20190323031821 54 180 0.0 0.0 0.00 0.00 0.00 76 1019.5
20190323031323 54 159 0.0 0.0 0.00 0.00 0.00 75 1019.5
20190323030823 55 39 0.0 0.0 0.00 0.00 0.00 74 1019.2
20190323030326 55 38 0.0 0.0 0.00 0.00 0.00 73 1019.2
20190323025827 55 38 0.0 0.0 0.00 0.00 0.00 72 1019.2
20190323025328 55 38 0.0 0.0 0.00 0.00 0.00 72 1018.9
20190323024833 55 38 0.0 0.0 0.00 0.00 0.00 70 1018.9
20190323024338 55 38 0.0 0.0 0.00 0.00 0.00 69 1018.9
20190323023819 55 38 0.0 0.0 0.00 0.00 0.00 69 1018.7
20190323023322 56 38 0.0 0.0 0.00 0.00 0.00 66 1018.7
20190323022823 56 38 0.0 0.0 0.00 0.00 0.00 67 1018.7
20190323022326 57 38 0.0 0.0 0.00 0.00 0.00 65 1018.7
20190323021833 57 38 0.0 0.0 0.00 0.00 0.00 64 1018.7
20190323021335 58 38 0.0 0.0 0.00 0.00 0.00 63 1018.7
20190323020837 58 38 0.0 0.0 0.00 0.00 0.00 61 1018.7
20190323020339 58 38 0.0 0.0 0.00 0.00 0.00 61 1018.6
20190323015821 59 38 0.0 0.0 0.00 0.00 0.00 59 1018.6
20190323015323 59 38 0.0 0.0 0.00 0.00 0.00 59 1018.6
20190323014826 60 38 0.0 0.0 0.00 0.00 0.00 58 1018.6
20190323014330 60 38 0.0 0.0 0.00 0.00 0.00 59 1018.6
20190323013836 60 38 0.0 0.0 0.00 0.00 0.00 56 1018.6
20190323013338 61 38 0.0 0.0 0.00 0.00 0.00 55 1019.4
20190323012821 62 39 0.0 0.0 0.00 0.00 0.00 54 1019.4
20190323012327 62 39 0.0 0.0 0.00 0.00 0.00 54 1019.4
20190323011832 62 269 0.0 2.0 0.00 0.00 0.00 53 1019.4
20190323011334 62 273 0.0 3.0 0.00 0.00 0.00 52 1019.4
20190323010836 63 41 0.0 3.0 0.00 0.00 0.00 52 1019.4
20190323010321 63 281 0.0 2.0 0.00 0.00 0.00 53 1019.5
20190323005827 63 281 0.0 3.0 0.00 0.00 0.00 54 1019.5
20190323005329 62 271 1.0 4.0 0.00 0.00 0.00 53 1019.5
20190323004831 62 242 2.0 5.0 0.00 0.00 0.00 54 1019.5
20190323004334 62 62 0.0 6.0 0.00 0.00 0.00 53 1019.5
20190323003835 62 246 1.0 6.0 0.00 0.00 0.00 55 1019.5
20190323003318 62 275 2.0 5.0 0.00 0.00 0.00 53 1019.6
20190323002828 62 220 1.0 6.0 0.00 0.00 0.00 54 1019.6
20190323002332 62 261 2.0 4.0 0.00 0.00 0.00 55 1019.6
20190323001834 62 260 1.0 4.0 0.00 0.00 0.00 53 1019.3
20190323001336 62 222 2.0 4.0 0.00 0.00 0.00 54 1019.3
20190323000818 63 257 1.0 5.0 0.00 0.00 0.00 52 1019.4
20190323000325 62 254 0.0 5.0 0.00 0.00 0.00 55 1019.4
20190322235825 62 255 1.0 4.0 0.00 0.00 0.00 55 1019.4
20190322235327 62 278 2.0 4.0 0.00 0.00 0.00 53 1019.5
20190322234829 63 312 0.0 3.0 0.00 0.00 0.00 53 1019.5
20190322234335 63 275 0.0 3.0 0.00 0.00 0.00 54 1019.5
20190322233837 62 190 0.0 5.0 0.00 0.00 0.00 54 1019.5
20190322233324 62 269 3.0 5.0 0.00 0.00 0.00 55 1019.9
20190322232826 62 196 3.0 5.0 0.00 0.00 0.00 55 1019.9
20190322232328 62 278 0.0 5.0 0.00 0.00 0.00 56 1020.1
20190322231833 62 313 1.0 4.0 0.00 0.00 0.00 56 1019.1
20190322231335 62 300 1.0 6.0 0.00 0.00 0.00 55 1019.1
20190322230821 61 304 2.0 6.0 0.00 0.00 0.00 55 1019.9
20190322230325 62 306 2.0 4.0 0.00 0.00 0.00 55 1019.9
20190322225827 62 304 1.0 6.0 0.00 0.00 0.00 55 1019.9
20190322225329 62 308 2.0 6.0 0.00 0.00 0.00 59 1019.9
20190322224834 61 246 1.0 5.0 0.00 0.00 0.00 56 1019.9
20190322224320 61 304 0.0 3.0 0.00 0.00 0.00 56 1019.9
20190322223826 62 300 2.0 6.0 0.00 0.00 0.00 56 1020.0
20190322223327 61 209 3.0 6.0 0.00 0.00 0.00 56 1019.1
20190322222832 61 214 0.0 5.0 0.00 0.00 0.00 55 1019.1
20190322222334 61 269 1.0 5.0 0.00 0.00 0.00 60 1019.1
20190322221836 61 285 0.0 5.0 0.00 0.00 0.00 56 1019.2
20190322221338 61 290 0.0 2.0 0.00 0.00 0.00 58 1019.2
20190322220818 61 327 0.0 3.0 0.00 0.00 0.00 55 1019.2
20190322220323 62 290 2.0 3.0 0.00 0.00 0.00 58 1019.2
20190322215828 61 271 0.0 3.0 0.00 0.00 0.00 57 1019.2
20190322215331 61 316 1.0 4.0 0.00 0.00 0.00 58 1019.2
20190322214837 60 315 2.0 5.0 0.00 0.00 0.00 57 1019.3
20190322214323 60 306 2.0 7.0 0.00 0.00 0.00 58 1019.3
20190322213825 60 238 4.0 7.0 0.00 0.00 0.00 57 1019.3
20190322213328 60 268 1.0 6.0 0.00 0.00 0.00 57 1019.3
20190322212830 60 254 2.0 6.0 0.00 0.00 0.00 60 1019.3
20190322212332 60 299 2.0 4.0 0.00 0.00 0.00 57 1019.3
20190322211834 60 52 1.0 6.0 0.00 0.00 0.00 56 1019.6
20190322211336 60 225 3.0 6.0 0.00 0.00 0.00 57 1019.6
20190322210838 60 275 1.0 5.0 0.00 0.00 0.00 57 1019.6
20190322210320 60 57 3.0 5.0 0.00 0.00 0.00 55 1019.7
20190322205825 60 217 2.0 5.0 0.00 0.00 0.00 57 1019.7
20190322205327 60 258 1.0 3.0 0.00 0.00 0.00 57 1019.9
20190322204833 59 302 0.0 3.0 0.00 0.00 0.00 61 1019.9
20190322204319 59 309 2.0 4.0 0.00 0.00 0.00 58 1019.9
20190322203825 59 98 0.0 6.0 0.00 0.00 0.00 57 1020.3
20190322203327 59 50 1.0 6.0 0.00 0.00 0.00 61 1020.3
20190322202831 59 242 0.0 4.0 0.00 0.00 0.00 60 1020.3
20190322202334 59 241 2.0 7.0 0.00 0.00 0.00 61 1020.3
20190322201836 59 274 4.0 7.0 0.00 0.00 0.00 60 1020.4
20190322201337 59 207 3.0 5.0 0.00 0.00 0.00 59 1020.4
20190322200838 59 33 1.0 5.0 0.00 0.00 0.00 58 1020.4
20190322200319 58 106 0.0 6.0 0.00 0.00 0.00 58 1020.9
20190322195822 58 265 3.0 7.0 0.00 0.00 0.00 60 1020.9
20190322195324 58 227 4.0 7.0 0.00 0.00 0.00 57 1020.8
20190322194831 58 227 1.0 6.0 0.00 0.00 0.00 57 1020.8
20190322194336 58 212 2.0 6.0 0.00 0.00 0.00 60 1020.8
20190322193838 58 246 1.0 4.0 0.00 0.00 0.00 59 1020.8
20190322193320 57 263 1.0 7.0 0.00 0.00 0.00 60 1021.0
20190322192822 57 302 1.0 7.0 0.00 0.00 0.00 60 1021.0
20190322192327 57 284 2.0 6.0 0.00 0.00 0.00 63 1021.0
20190322191829 57 300 1.0 4.0 0.00 0.00 0.00 61 1021.0
20190322191334 57 38 1.0 4.0 0.00 0.00 0.00 63 1021.0
20190322190837 57 285 1.0 4.0 0.00 0.00 0.00 62 1021.0
20190322190319 57 109 2.0 4.0 0.00 0.00 0.00 61 1021.0
20190322185822 57 66 3.0 4.0 0.00 0.00 0.00 59 1021.0
20190322185328 57 74 1.0 3.0 0.00 0.00 0.00 63 1021.3
20190322184830 56 211 0.0 4.0 0.00 0.00 0.00 63 1021.3
20190322184332 56 119 1.0 6.0 0.00 0.00 0.00 63 1021.3
20190322183834 55 304 1.0 6.0 0.00 0.00 0.00 65 1021.3
20190322183320 55 276 1.0 5.0 0.00 0.00 0.00 67 1021.7
20190322182822 55 265 3.0 5.0 0.00 0.00 0.00 66 1021.7
20190322182325 54 291 0.0 2.0 0.00 0.00 0.00 69 1021.4
20190322181825 54 306 0.0 5.0 0.00 0.00 0.00 68 1021.4
20190322181327 55 297 2.0 5.0 0.00 0.00 0.00 67 1021.4
20190322180828 55 316 1.0 4.0 0.00 0.00 0.00 73 1021.3
20190322180331 54 296 0.0 2.0 0.00 0.00 0.00 72 1021.3
20190322175817 53 241 2.0 4.0 0.00 0.00 0.00 73 1021.3
20190322175323 53 273 0.0 4.0 0.00 0.00 0.00 72 1021.0
20190322174825 54 268 2.0 4.0 0.00 0.00 0.00 73 1021.0
20190322174330 55 311 0.0 4.0 0.00 0.00 0.00 72 1021.0
20190322173831 54 38 1.0 4.0 0.00 0.00 0.00 72 1021.0
20190322173333 54 56 1.0 2.0 0.00 0.00 0.00 71 1021.1
20190322172834 54 205 0.0 2.0 0.00 0.00 0.00 74 1021.1
20190322172336 53 209 1.0 3.0 0.00 0.00 0.00 74 1021.1
20190322171838 53 266 0.0 3.0 0.00 0.00 0.00 76 1021.0
20190322171320 53 266 0.0 3.0 0.00 0.00 0.00 77 1021.0
20190322170822 52 262 1.0 3.0 0.00 0.00 0.00 79 1021.0
20190322170324 51 259 0.0 0.0 0.00 0.00 0.00 80 1021.0
20190322165834 51 245 0.0 0.0 0.00 0.00 0.00 78 1021.0
20190322165319 52 49 0.0 0.0 0.00 0.00 0.00 78 1021.2
20190322164827 52 49 0.0 2.0 0.00 0.00 0.00 80 1021.2